Time;durP1;ratioP1;P1;durP2;ratioP2;P2;SDS_P1;SDS_P2;PMS_P1;PMS_P2;Temp;Humidity;BMP_temperature;BMP_pressure;BME280_temperature;BME280_humidity;BME280_pressure;Samples;Min_cycle;Max_cycle;Signal;HPM_P1;HPM_P2
2021/05/29 00:02:12;;;;;;;4.97;4.15;;;12.70;70.10;;;12.27;54.95;95317.22;5082981;28;20205;-81
2021/05/29 00:04:40;;;;;;;5.50;3.95;;;12.70;70.20;;;12.27;54.65;95317.22;5051037;28;21088;-83
2021/05/29 00:07:06;;;;;;;4.60;3.78;;;12.70;70.30;;;12.27;54.69;95317.22;5062252;28;20206;-82
2021/05/29 00:09:34;;;;;;;4.30;3.55;;;12.60;70.20;;;12.22;54.71;95310.91;4998905;28;20235;-82
2021/05/29 00:12:03;;;;;;;5.75;4.70;;;12.60;70.20;;;12.23;54.84;95316.00;4920120;29;20204;-81
2021/05/29 00:14:32;;;;;;;5.10;4.05;;;12.60;70.40;;;12.28;54.85;95318.84;4766372;29;20281;-82
2021/05/29 00:17:00;;;;;;;5.13;3.53;;;12.70;70.40;;;12.28;54.90;95324.13;4569168;30;20383;-81
2021/05/29 00:20:27;;;;;;;4.90;3.90;;;12.70;70.40;;;12.20;54.71;95310.31;5150495;27;20638;-83
2021/05/29 00:22:54;;;;;;;4.10;3.70;;;12.60;70.30;;;12.21;54.66;95312.75;5106118;28;20248;-82
2021/05/29 00:25:21;;;;;;;4.88;4.15;;;12.60;70.30;;;12.18;54.75;95315.75;5079650;28;20221;-82
2021/05/29 00:27:48;;;;;;;5.40;4.35;;;12.60;70.30;;;12.15;54.71;95311.69;5029002;28;20242;-82
2021/05/29 00:30:15;;;;;;;4.63;4.05;;;12.50;70.10;;;12.04;54.66;95308.78;4982128;28;20211;-81
2021/05/29 00:32:43;;;;;;;4.88;4.00;;;12.60;70.20;;;11.98;55.07;95316.41;4901104;29;20258;-82
2021/05/29 00:35:11;;;;;;;5.47;3.78;;;12.50;70.00;;;11.87;54.64;95316.09;4786485;29;20212;-82
2021/05/29 00:37:38;;;;;;;4.93;4.40;;;12.50;70.00;;;11.72;54.81;95309.09;4603543;30;20246;-83
2021/05/29 00:40:24;;;;;;;5.68;4.20;;;12.40;69.90;;;11.66;55.07;95313.28;5150794;27;20641;-82
2021/05/29 00:42:51;;;;;;;6.55;4.00;;;12.30;69.90;;;11.54;55.19;95317.41;5072652;28;20225;-82
2021/05/29 00:45:18;;;;;;;4.97;4.28;;;12.20;69.80;;;11.43;55.12;95315.31;5092058;28;20206;-82
2021/05/29 00:47:45;;;;;;;5.28;4.60;;;12.10;69.80;;;11.32;55.48;95308.72;5044907;28;20585;-82
2021/05/29 00:50:14;;;;;;;4.22;3.67;;;12.10;70.00;;;11.18;55.33;95313.84;5040341;28;20211;-83
2021/05/29 00:52:41;;;;;;;4.55;4.00;;;11.90;69.80;;;11.05;55.17;95303.19;4945722;28;20220;-81
2021/05/29 00:55:14;;;;;;;5.15;3.92;;;11.90;69.80;;;10.96;55.41;95309.53;4783108;29;20230;-82
2021/05/29 00:57:45;;;;;;;4.35;3.47;;;11.80;70.40;;;10.88;55.43;95313.88;4633543;30;20304;-82
2021/05/29 01:02:10;;;;;;;7.43;4.75;;;11.70;69.90;;;10.68;56.12;95305.78;5150558;27;21138;-81
2021/05/29 01:04:38;;;;;;;5.45;4.72;;;11.50;69.90;;;10.63;56.61;95309.94;5086504;28;20222;-82
2021/05/29 01:07:11;;;;;;;4.85;4.35;;;11.50;70.40;;;10.58;56.16;95305.22;5094189;28;20236;-82
2021/05/29 01:09:40;;;;;;;5.88;5.28;;;11.40;71.00;;;10.54;58.19;95310.03;5039690;28;20224;-82
2021/05/29 01:12:10;;;;;;;7.00;5.40;;;11.30;71.10;;;10.52;59.30;95305.97;4964974;28;20233;-81
2021/05/29 01:14:46;;;;;;;6.80;6.10;;;11.20;71.90;;;10.49;60.10;95290.59;4918541;28;20766;-82
2021/05/29 01:17:15;;;;;;;8.75;6.32;;;11.20;72.50;;;10.53;60.77;95297.09;4799369;29;21622;-82
2021/05/29 01:22:45;;;;;;;6.28;5.68;;;11.20;72.90;;;10.57;60.07;95295.75;5140249;27;20566;-82
2021/05/29 01:25:22;;;;;;;7.43;6.25;;;11.10;73.50;;;10.59;60.08;95295.56;5075594;28;20213;-82
2021/05/29 01:28:04;;;;;;;6.80;6.13;;;11.10;73.80;;;10.65;60.45;95307.94;5053501;28;20226;-81
2021/05/29 01:31:01;;;;;;;7.80;6.28;;;11.20;74.00;;;10.65;60.81;95306.13;5051867;28;20278;-82
2021/05/29 01:33:34;;;;;;;7.25;6.30;;;11.20;73.90;;;10.67;61.07;95304.16;4945568;28;20226;-82
2021/05/29 01:36:08;;;;;;;9.15;7.63;;;11.20;74.30;;;10.66;61.75;95301.72;4906314;29;20221;-80
2021/05/29 01:38:37;;;;;;;7.85;6.80;;;11.20;74.80;;;10.70;62.01;95302.97;4727637;29;20252;-83
2021/05/29 01:43:27;;;;;;;8.52;6.80;;;11.20;74.60;;;10.70;62.35;95306.41;5141615;27;20655;-83
2021/05/29 01:45:55;;;;;;;7.65;5.88;;;11.30;75.00;;;10.75;61.68;95315.53;5069236;28;20217;-83
2021/05/29 01:48:22;;;;;;;7.85;6.55;;;11.30;74.80;;;10.73;61.94;95313.09;5098723;28;20229;-82
2021/05/29 01:50:49;;;;;;;10.07;7.53;;;11.30;74.80;;;10.68;61.52;95308.41;5053605;28;20226;-82
2021/05/29 01:53:22;;;;;;;9.32;8.18;;;11.20;74.70;;;10.67;62.65;95308.59;5039774;28;20225;-84
2021/05/29 01:55:49;;;;;;;8.48;7.55;;;11.30;75.50;;;10.68;62.40;95315.44;4940577;28;20247;-82
2021/05/29 01:58:18;;;;;;;8.82;7.75;;;11.30;75.50;;;10.67;62.97;95309.41;4901092;29;20261;-80
2021/05/29 02:00:45;;;;;;;8.60;7.57;;;11.20;75.40;;;10.65;63.08;95298.25;4867054;28;20259;-82
2021/05/29 02:03:23;;;;;;;9.95;8.50;;;11.30;75.50;;;10.65;63.34;95302.72;5142529;27;20393;-82
2021/05/29 02:05:50;;;;;;;9.50;8.50;;;11.30;75.50;;;10.64;63.78;95301.88;5108556;28;20205;-82
2021/05/29 02:08:17;;;;;;;8.43;7.15;;;11.30;75.50;;;10.66;62.82;95309.59;5101746;28;20244;-82
2021/05/29 02:10:46;;;;;;;8.80;7.90;;;11.30;75.50;;;10.64;63.06;95301.88;5066036;28;20271;-82
2021/05/29 02:13:27;;;;;;;10.50;7.95;;;11.20;75.40;;;10.60;62.79;95299.81;5027427;28;20308;-81
2021/05/29 02:15:54;;;;;;;8.55;7.35;;;11.20;75.70;;;10.59;63.41;95299.00;4963650;28;20201;-83
2021/05/29 02:18:23;;;;;;;9.80;8.80;;;11.20;75.40;;;10.55;63.51;95300.38;4897232;28;20231;-82
2021/05/29 02:23:50;;;;;;;10.75;8.30;;;11.20;75.60;;;10.54;63.59;95299.53;5137433;27;21123;-82
2021/05/29 02:26:21;;;;;;;9.07;8.10;;;11.10;76.00;;;10.53;63.48;95297.94;5052159;28;20252;-82
2021/05/29 02:28:54;;;;;;;8.45;7.50;;;11.10;75.80;;;10.52;62.94;95298.91;5057074;28;20313;-82
2021/05/29 02:31:22;;;;;;;10.45;8.68;;;11.10;75.70;;;10.48;63.01;95294.22;5004652;28;20255;-82
2021/05/29 02:33:49;;;;;;;9.23;8.27;;;11.10;75.50;;;10.48;62.88;95287.16;5013464;28;20758;-82
2021/05/29 02:36:16;;;;;;;8.38;7.45;;;11.10;75.50;;;10.42;62.91;95277.38;4941626;28;20212;-82
2021/05/29 02:38:44;;;;;;;9.20;7.97;;;11.10;75.30;;;10.40;62.62;95269.72;4841159;29;20247;-83
2021/05/29 02:41:22;;;;;;;8.50;7.53;;;11.10;75.30;;;10.43;62.27;95286.88;5139774;27;21107;-82
2021/05/29 02:43:49;;;;;;;9.52;8.25;;;11.00;75.30;;;10.41;62.12;95281.00;5088362;28;20225;-82
2021/05/29 02:46:16;;;;;;;8.48;7.60;;;11.00;75.30;;;10.40;61.86;95284.66;5053582;28;20219;-82
2021/05/29 02:48:44;;;;;;;9.73;7.95;;;11.00;75.30;;;10.42;61.53;95285.25;5037830;28;20212;-82
2021/05/29 02:51:11;;;;;;;8.80;7.72;;;10.90;75.20;;;10.37;61.75;95277.94;5000128;28;20222;-81
2021/05/29 02:53:38;;;;;;;9.80;8.50;;;11.00;75.30;;;10.40;61.68;95289.88;4944595;28;20285;-82
2021/05/29 02:56:05;;;;;;;10.60;8.20;;;11.00;75.30;;;10.39;61.94;95290.88;4887988;28;20204;-82
2021/05/29 03:01:20;;;;;;;10.63;7.75;;;10.90;75.20;;;10.39;61.46;95293.50;5135851;27;20575;-82
2021/05/29 03:03:48;;;;;;;8.05;7.10;;;10.90;75.20;;;10.36;61.41;95284.19;5069579;28;20687;-82
2021/05/29 03:06:15;;;;;;;8.45;7.07;;;10.90;75.20;;;10.40;61.26;95292.50;5089710;28;20568;-82
2021/05/29 03:08:42;;;;;;;9.10;7.70;;;11.00;75.30;;;10.38;61.06;95286.63;5088774;28;20222;-82
2021/05/29 03:11:10;;;;;;;9.57;7.60;;;10.90;76.00;;;10.36;61.48;95278.94;5066259;28;20206;-85
2021/05/29 03:13:38;;;;;;;8.93;7.50;;;10.90;75.20;;;10.36;61.27;95286.81;5033924;28;20318;-82
2021/05/29 03:16:05;;;;;;;9.32;7.60;;;10.90;75.20;;;10.38;61.17;95284.81;4946732;28;20736;-82
2021/05/29 03:18:32;;;;;;;9.20;8.20;;;10.90;75.20;;;10.38;61.64;95290.03;4908221;28;20273;-81
2021/05/29 03:21:47;;;;;;;11.20;8.45;;;10.90;75.20;;;10.38;61.85;95286.63;5150574;27;20601;-82
2021/05/29 03:24:14;;;;;;;8.60;7.65;;;10.90;75.20;;;10.35;62.15;95284.31;5072326;28;20301;-82
2021/05/29 03:26:41;;;;;;;10.07;9.07;;;11.00;75.30;;;10.35;63.28;95285.16;5066403;28;20303;-81
2021/05/29 03:29:08;;;;;;;10.38;9.27;;;10.90;75.90;;;10.40;63.76;95279.41;5073358;28;20222;-82
2021/05/29 03:31:34;;;;;;;9.90;8.27;;;11.00;76.30;;;10.40;63.35;95285.44;5055815;28;20199;-82
2021/05/29 03:34:01;;;;;;;10.23;8.63;;;11.00;76.20;;;10.43;62.63;95286.88;4973994;28;20671;-82
2021/05/29 03:36:27;;;;;;;10.80;8.15;;;10.90;76.10;;;10.48;62.69;95287.16;4917281;29;20200;-81
2021/05/29 03:38:54;;;;;;;8.57;7.57;;;10.90;76.00;;;10.49;62.46;95285.34;4735797;29;20299;-82
2021/05/29 03:41:32;;;;;;;8.88;7.88;;;11.00;76.00;;;10.51;62.70;95297.28;5146468;27;20549;-81
2021/05/29 03:44:00;;;;;;;8.85;7.53;;;11.00;76.00;;;10.54;62.40;95298.72;5082607;28;20259;-82
2021/05/29 03:46:28;;;;;;;8.90;7.57;;;11.00;75.90;;;10.58;61.87;95294.75;5068359;28;20560;-82
2021/05/29 03:48:55;;;;;;;8.35;7.38;;;11.10;76.10;;;10.62;61.69;95301.25;5039997;28;20227;-82
2021/05/29 03:51:22;;;;;;;9.05;7.97;;;11.10;76.00;;;10.67;61.87;95298.09;4972461;28;20311;-82
2021/05/29 03:53:49;;;;;;;10.07;7.72;;;11.10;75.90;;;10.69;61.60;95293.47;4896128;29;20232;-81
2021/05/29 03:56:17;;;;;;;11.63;8.63;;;11.10;75.80;;;10.72;61.45;95290.50;4772579;29;20249;-82
2021/05/29 03:58:44;;;;;;;9.82;8.73;;;11.10;75.90;;;10.77;61.58;95300.44;4688453;30;20247;-82
2021/05/29 04:01:22;;;;;;;10.05;8.77;;;11.10;75.80;;;10.79;62.12;95301.06;5149714;27;20741;-82
2021/05/29 04:03:50;;;;;;;10.15;8.23;;;11.10;75.90;;;10.82;62.00;95298.06;5108800;27;20245;-81
2021/05/29 04:06:17;;;;;;;10.88;8.77;;;11.20;75.80;;;10.80;61.92;95285.16;5097419;28;20205;-82
2021/05/29 04:08:43;;;;;;;9.35;8.43;;;11.30;76.00;;;10.84;61.67;95290.81;5084491;28;20225;-81
2021/05/29 04:11:10;;;;;;;10.38;8.77;;;11.30;75.80;;;10.87;61.99;95291.25;5050274;28;20666;-83
2021/05/29 04:13:37;;;;;;;12.20;8.77;;;11.30;75.60;;;10.87;62.14;95295.72;4988107;28;20227;-82
2021/05/29 04:16:04;;;;;;;10.65;8.75;;;11.30;75.70;;;10.92;61.84;95297.78;4879486;29;20764;-80
2021/05/29 04:18:31;;;;;;;8.82;7.93;;;11.30;75.70;;;10.89;61.75;95297.16;4722974;29;20268;-82
2021/05/29 04:21:09;;;;;;;12.30;9.60;;;11.40;75.60;;;10.92;62.11;95292.53;5150008;27;20842;-81
2021/05/29 04:23:35;;;;;;;10.73;9.23;;;11.40;75.80;;;10.96;61.95;95296.41;5111811;27;20220;-82
2021/05/29 04:26:06;;;;;;;9.70;8.35;;;11.40;75.80;;;11.00;61.89;95303.72;5088276;28;20222;-82
2021/05/29 04:28:38;;;;;;;11.20;8.60;;;11.40;75.80;;;10.98;61.92;95299.66;5060017;28;20722;-81
2021/05/29 04:31:05;;;;;;;13.52;8.85;;;11.40;75.80;;;11.00;61.89;95303.72;5015246;28;20217;-82
2021/05/29 04:33:33;;;;;;;10.20;9.10;;;11.40;75.60;;;11.02;61.85;95311.41;4945125;28;20334;-81
2021/05/29 04:36:00;;;;;;;10.05;8.68;;;11.50;75.60;;;11.05;61.46;95308.44;4919613;28;20227;-81
2021/05/29 04:38:28;;;;;;;10.95;9.32;;;11.40;75.60;;;11.04;62.06;95304.97;4768845;29;20232;-82
2021/05/29 04:41:07;;;;;;;12.05;9.50;;;11.50;75.80;;;11.09;61.84;95314.13;5144145;27;20311;-82
2021/05/29 04:43:34;;;;;;;11.15;8.57;;;11.50;75.70;;;11.12;61.59;95316.38;5080766;28;20682;-82
2021/05/29 04:46:01;;;;;;;9.02;7.95;;;11.50;75.60;;;11.13;61.50;95307.50;5044585;28;20280;-82
2021/05/29 04:48:29;;;;;;;8.57;7.65;;;11.50;75.60;;;11.19;61.53;95312.84;5008938;28;20245;-81
2021/05/29 04:53:47;;;;;;;7.82;7.03;;;11.60;75.70;;;11.31;61.07;95323.66;4811135;29;20228;-82
2021/05/29 04:56:16;;;;;;;8.27;7.05;;;11.60;75.70;;;11.36;60.79;95325.72;4583229;30;20229;-81
2021/05/29 04:58:42;;;;;;;9.90;8.15;;;11.60;75.70;;;11.42;61.15;95324.19;4470739;31;20722;-82
2021/05/29 05:01:16;;;;;;;9.45;8.15;;;11.70;75.80;;;11.46;60.91;95322.78;5135680;27;20303;-81
2021/05/29 05:03:43;;;;;;;12.90;7.22;;;11.70;75.80;;;11.49;61.04;95327.69;5082882;28;20223;-82
2021/05/29 05:06:11;;;;;;;9.77;7.05;;;11.70;75.80;;;11.56;60.55;95333.00;5051590;28;20222;-83
2021/05/29 05:08:39;;;;;;;7.55;6.72;;;11.80;76.60;;;11.56;60.36;95327.72;5047772;28;20689;-81
2021/05/29 05:11:05;;;;;;;8.32;7.38;;;11.90;75.90;;;11.66;60.55;95338.75;5025914;28;20564;-81
2021/05/29 05:13:32;;;;;;;9.50;7.30;;;11.90;75.90;;;11.67;60.26;95327.25;4996097;28;20236;-81
2021/05/29 05:15:58;;;;;;;7.75;6.93;;;11.90;75.90;;;11.75;60.36;95332.34;4911819;28;20219;-82
2021/05/29 05:18:25;;;;;;;8.93;7.15;;;12.00;76.00;;;11.81;60.57;95336.06;4813604;29;20800;-82
2021/05/29 05:22:27;;;;;;;6.68;5.80;;;12.00;76.00;;;11.89;60.24;95330.69;5150287;27;20609;-82
2021/05/29 05:24:53;;;;;;;7.85;6.70;;;12.10;75.70;;;11.95;60.03;95326.47;5081687;28;20210;-82
2021/05/29 05:27:21;;;;;;;8.88;6.50;;;12.20;75.70;;;12.01;60.03;95330.97;5057913;28;20669;-82
2021/05/29 05:29:48;;;;;;;9.38;7.30;;;12.20;76.40;;;12.05;59.85;95332.25;5064797;28;20263;-81
2021/05/29 05:32:15;;;;;;;7.85;6.40;;;12.20;75.50;;;12.11;59.75;95330.69;5026636;28;20204;-82
2021/05/29 05:34:41;;;;;;;6.93;6.07;;;12.40;75.50;;;12.17;59.63;95333.34;4991870;28;20276;-82
2021/05/29 05:37:08;;;;;;;7.47;6.68;;;12.30;75.40;;;12.22;59.54;95332.78;4943003;28;20259;-82
2021/05/29 05:39:36;;;;;;;6.72;6.00;;;12.40;75.50;;;12.28;60.08;95331.19;4840605;29;20242;-82
2021/05/29 05:43:38;;;;;;;6.70;5.97;;;12.40;75.50;;;12.42;59.72;95335.53;5139976;27;20622;-82
2021/05/29 05:46:05;;;;;;;6.60;5.72;;;12.50;75.60;;;12.58;59.86;95339.66;5100767;28;20730;-81
2021/05/29 05:48:32;;;;;;;6.43;5.80;;;12.60;75.80;;;12.79;59.87;95343.22;5105169;28;20229;-82
2021/05/29 05:51:01;;;;;;;6.20;5.05;;;12.70;76.20;;;13.04;60.09;95343.56;5102291;28;20295;-82
2021/05/29 05:53:32;;;;;;;5.95;5.25;;;12.80;76.10;;;13.28;59.50;95347.50;5080980;28;20223;-82
2021/05/29 05:56:03;;;;;;;5.53;4.90;;;13.00;76.30;;;13.53;59.50;95343.53;5044228;28;20213;-82
2021/05/29 05:58:33;;;;;;;8.38;5.22;;;13.20;76.50;;;13.73;58.90;95335.66;4911829;28;20225;-82
2021/05/29 06:01:01;;;;;;;5.60;4.90;;;13.40;75.90;;;13.91;58.53;95335.06;4773419;29;20312;-81
2021/05/29 06:05:06;;;;;;;6.05;4.53;;;13.60;75.80;;;14.22;58.20;95346.81;5150238;27;20640;-82
2021/05/29 06:07:34;;;;;;;5.03;4.53;;;13.90;75.40;;;14.41;57.88;95347.84;5088798;28;20204;-82
2021/05/29 06:10:02;;;;;;;5.88;4.47;;;14.00;75.30;;;14.54;58.12;95353.09;5072809;28;20201;-82
2021/05/29 06:12:31;;;;;;;5.78;4.68;;;14.20;75.20;;;14.76;57.75;95360.81;5042455;28;20251;-82
2021/05/29 06:20:28;;;;;;;4.57;3.95;;;14.70;75.00;;;15.16;56.60;95350.13;4819426;29;20221;-82
2021/05/29 06:23:10;;;;;;;4.82;3.83;;;14.80;74.30;;;15.22;56.94;95353.75;4611298;30;20257;-83
2021/05/29 06:25:48;;;;;;;4.25;3.85;;;15.00;73.80;;;15.20;56.12;95345.22;5150761;27;20383;-82
2021/05/29 06:28:15;;;;;;;4.50;3.72;;;15.10;73.40;;;15.17;56.05;95350.91;5111628;27;20232;-82
2021/05/29 06:30:42;;;;;;;3.72;3.42;;;15.20;73.30;;;15.18;56.00;95360.47;5107829;28;20220;-83
2021/05/29 06:33:09;;;;;;;3.88;3.33;;;15.10;73.00;;;15.13;56.01;95363.75;5084795;28;20601;-82
2021/05/29 06:35:36;;;;;;;2.83;2.63;;;15.10;72.60;;;15.12;55.88;95362.13;5015622;28;20210;-81
2021/05/29 06:38:02;;;;;;;3.30;3.00;;;15.10;72.60;;;15.14;55.62;95359.28;4908520;29;20227;-83
2021/05/29 06:40:29;;;;;;;3.58;3.03;;;15.10;72.40;;;15.17;55.80;95369.41;4858082;29;20272;-82
2021/05/29 06:42:56;;;;;;;3.58;2.88;;;15.20;72.50;;;15.17;55.55;95367.59;4667509;29;20262;-82
2021/05/29 06:46:59;;;;;;;3.30;3.00;;;15.20;72.50;;;15.14;54.78;95367.22;5150804;27;20619;-82
2021/05/29 06:49:26;;;;;;;3.08;2.85;;;15.20;71.90;;;15.14;55.22;95365.38;5093122;27;20224;-83
2021/05/29 06:52:06;;;;;;;4.20;3.30;;;15.20;71.70;;;15.20;54.48;95367.16;5093017;28;21011;-82
2021/05/29 07:00:06;;;;;;;4.40;2.92;;;15.30;71.30;;;15.37;53.66;95367.50;4866828;29;20210;-82
2021/05/29 07:02:33;;;;;;;4.28;2.80;;;15.30;71.20;;;15.51;54.14;95370.91;4788902;29;20203;-82
2021/05/29 07:07:11;;;;;;;2.90;2.30;;;15.30;71.30;;;15.78;53.95;95365.47;5150500;27;20605;-82
2021/05/29 07:09:38;;;;;;;3.17;2.63;;;15.50;71.70;;;15.96;53.44;95361.31;5122183;27;20252;-82
2021/05/29 07:12:06;;;;;;;2.50;2.30;;;15.60;71.40;;;16.20;53.51;95372.09;5109844;27;20576;-83
2021/05/29 07:14:33;;;;;;;3.42;2.80;;;15.80;71.40;;;16.31;52.77;95363.50;5098851;28;20222;-81
2021/05/29 07:17:02;;;;;;;4.65;2.70;;;16.00;71.10;;;16.36;52.31;95357.56;5053727;28;20204;-82
2021/05/29 07:19:29;;;;;;;3.30;2.80;;;16.10;70.30;;;16.40;51.40;95371.97;4969129;28;20235;-81
2021/05/29 07:21:55;;;;;;;3.28;2.70;;;16.30;70.10;;;16.43;52.39;95355.63;4830797;29;20219;-82
2021/05/29 07:24:23;;;;;;;2.60;2.40;;;16.30;70.20;;;16.60;52.02;95369.13;4791145;29;20226;-82
2021/05/29 07:28:38;;;;;;;4.30;2.50;;;16.40;69.70;;;16.81;52.05;95373.22;5140004;27;20650;-83
2021/05/29 07:31:05;;;;;;;2.88;2.45;;;16.60;70.00;;;16.93;51.96;95363.53;5125538;28;20241;-82
2021/05/29 07:33:33;;;;;;;2.78;2.58;;;16.60;70.00;;;17.16;51.97;95367.34;5106263;28;20274;-83
2021/05/29 07:36:00;;;;;;;3.33;2.80;;;16.80;70.20;;;17.29;51.56;95364.53;5081880;28;20206;-82
2021/05/29 07:38:27;;;;;;;2.92;2.67;;;16.90;70.00;;;17.49;51.32;95367.97;5017502;28;20216;-83
2021/05/29 07:40:54;;;;;;;2.83;2.50;;;17.00;69.80;;;17.58;51.44;95364.00;4965776;28;20210;-83
2021/05/29 07:43:21;;;;;;;3.55;2.70;;;17.20;70.50;;;17.64;50.67;95356.97;4862674;29;20329;-82
2021/05/29 07:45:49;;;;;;;3.10;2.80;;;17.30;69.20;;;17.69;51.09;95363.22;4711275;30;20234;-82
2021/05/29 07:50:07;;;;;;;3.22;2.72;;;17.40;69.20;;;17.65;50.49;95362.06;5150700;27;20581;-82
2021/05/29 07:52:34;;;;;;;2.90;2.60;;;17.50;69.40;;;17.63;50.51;95358.81;5070174;28;20216;-83
2021/05/29 07:55:02;;;;;;;3.47;2.95;;;17.50;68.40;;;17.69;50.79;95365.06;5097181;28;20200;-83
2021/05/29 07:57:32;;;;;;;3.88;3.03;;;17.50;68.40;;;17.61;48.11;95360.88;5088717;28;20666;-83
2021/05/29 08:00:00;;;;;;;4.18;2.90;;;17.60;67.40;;;17.55;48.62;95359.13;5048724;28;22292;-82
2021/05/29 08:02:29;;;;;;;3.78;2.90;;;17.60;67.20;;;17.57;49.12;95368.47;4953249;28;20212;-83
2021/05/29 08:04:58;;;;;;;3.22;2.65;;;17.60;67.60;;;17.58;49.63;95362.13;4847000;29;20238;-83
2021/05/29 08:07:25;;;;;;;3.03;2.72;;;17.60;67.60;;;17.73;49.60;95368.88;4791761;29;20242;-83
2021/05/29 08:09:58;;;;;;;5.07;3.13;;;17.60;67.80;;;17.84;48.95;95364.66;5150537;27;20363;-82
2021/05/29 08:12:27;;;;;;;2.85;2.53;;;17.60;67.50;;;17.91;49.42;95365.38;5111640;27;20194;-82
2021/05/29 08:14:54;;;;;;;2.67;2.30;;;17.70;67.50;;;17.99;49.36;95370.41;5077166;28;20209;-82
2021/05/29 08:17:24;;;;;;;2.50;2.30;;;17.80;67.70;;;18.09;49.20;95369.84;5059590;28;20226;-83
2021/05/29 08:19:51;;;;;;;3.28;2.38;;;17.80;67.60;;;18.19;49.23;95371.94;5051441;28;20214;-83
2021/05/29 08:22:18;;;;;;;2.50;2.30;;;17.90;67.80;;;18.26;49.66;95371.81;4979547;28;20680;-84
2021/05/29 08:24:44;;;;;;;2.63;2.40;;;18.00;67.80;;;18.31;49.47;95364.78;4861658;29;20619;-83
2021/05/29 08:27:11;;;;;;;3.17;2.78;;;18.10;67.80;;;18.37;49.33;95368.34;4736352;29;20709;-81
2021/05/29 08:30:56;;;;;;;2.55;2.33;;;18.10;67.30;;;18.24;48.00;95374.72;5150106;27;20554;-83
2021/05/29 08:33:23;;;;;;;2.95;2.58;;;18.20;66.50;;;18.08;48.40;95370.88;5083577;28;20225;-82
2021/05/29 08:35:50;;;;;;;2.53;2.33;;;18.10;66.20;;;17.97;48.41;95371.63;5058097;28;20305;-83
2021/05/29 08:38:17;;;;;;;3.67;3.10;;;18.10;66.20;;;17.89;48.68;95375.41;5072947;28;20225;-82
2021/05/29 08:40:44;;;;;;;4.47;2.70;;;18.00;66.10;;;17.82;48.81;95364.88;5029697;28;20259;-84
2021/05/29 08:43:11;;;;;;;4.00;2.70;;;18.10;66.40;;;17.85;48.58;95367.06;5000330;28;20228;-83
2021/05/29 08:45:38;;;;;;;4.30;2.40;;;18.00;66.50;;;17.96;48.30;95370.03;4948824;28;20260;-81
2021/05/29 08:48:07;;;;;;;2.85;2.53;;;18.00;66.60;;;18.02;48.32;95371.78;4850846;29;20728;-82
2021/05/29 08:51:38;;;;;;;4.03;2.45;;;18.00;66.40;;;18.08;48.76;95365.56;5150677;27;20655;-83
2021/05/29 08:54:04;;;;;;;3.58;2.95;;;18.00;66.40;;;18.22;48.76;95369.63;5111996;27;20219;-82
2021/05/29 08:56:32;;;;;;;2.88;2.67;;;18.10;66.70;;;18.29;47.05;95372.16;5092715;28;20603;-83
2021/05/29 08:59:01;;;;;;;3.92;3.30;;;18.10;66.40;;;18.36;46.67;95366.75;5070010;28;20213;-82
2021/05/29 09:01:30;;;;;;;3.13;2.67;;;18.20;65.50;;;18.38;46.45;95369.97;4972117;28;20687;-83
2021/05/29 09:04:04;;;;;;;2.92;2.70;;;18.20;65.50;;;18.42;46.81;95372.97;4839405;29;20238;-83
2021/05/29 09:06:30;;;;;;;2.88;2.55;;;18.30;65.50;;;18.40;46.72;95374.03;4739262;29;20656;-83
2021/05/29 09:09:00;;;;;;;2.70;2.40;;;18.30;65.00;;;18.31;46.77;95371.94;4620221;30;20328;-84
2021/05/29 09:12:03;;;;;;;2.78;2.40;;;18.40;64.80;;;18.22;46.81;95380.25;5150510;27;20378;-83
2021/05/29 09:14:39;;;;;;;3.63;2.33;;;18.30;64.60;;;18.18;46.95;95372.97;5065551;28;20229;-83
2021/05/29 09:17:21;;;;;;;2.55;2.33;;;18.30;65.20;;;18.19;47.10;95378.03;5047689;28;20299;-83
2021/05/29 09:20:10;;;;;;;3.33;2.42;;;18.20;64.80;;;18.15;47.13;95374.22;5051232;28;20233;-82
2021/05/29 09:22:42;;;;;;;3.00;2.50;;;18.20;65.30;;;18.07;47.40;95380.66;4969213;28;20296;-82
2021/05/29 09:25:19;;;;;;;3.70;2.50;;;18.20;65.20;;;17.92;46.78;95388.22;4779942;29;20220;-82
2021/05/29 09:28:03;;;;;;;3.05;2.75;;;18.20;64.80;;;17.70;46.77;95390.53;4672838;30;20721;-82
2021/05/29 09:32:06;;;;;;;3.50;2.60;;;18.10;64.70;;;17.25;47.12;95403.13;5150458;27;20608;-83
2021/05/29 09:34:43;;;;;;;4.72;2.70;;;17.80;64.30;;;17.00;47.70;95405.84;5085973;27;20323;-83
2021/05/29 09:37:17;;;;;;;2.55;2.35;;;17.60;64.40;;;16.79;47.82;95401.75;5074202;28;20274;-83
2021/05/29 09:39:49;;;;;;;2.53;2.33;;;17.50;65.00;;;16.65;48.17;95406.38;5084747;28;20219;-82
2021/05/29 09:42:20;;;;;;;4.63;2.50;;;17.30;65.00;;;16.62;48.26;95404.97;5093126;28;20261;-83
2021/05/29 09:44:46;;;;;;;2.55;2.35;;;17.10;65.30;;;16.67;48.22;95411.44;5075066;28;20236;-82
2021/05/29 09:47:16;;;;;;;3.17;2.67;;;17.00;65.70;;;16.76;48.52;95405.66;5034620;28;20217;-83
2021/05/29 09:52:36;;;;;;;2.70;2.50;;;16.90;66.40;;;17.22;49.08;95400.94;5149883;27;21134;-82
2021/05/29 09:55:11;;;;;;;3.08;2.83;;;17.10;66.70;;;17.44;48.93;95397.81;5067170;28;20206;-83
2021/05/29 09:57:56;;;;;;;3.22;2.72;;;17.20;66.60;;;17.62;48.78;95390.88;5057535;28;20206;-82
2021/05/29 10:00:40;;;;;;;3.13;2.78;;;17.40;66.50;;;17.68;47.95;95379.38;5022124;28;20217;-83
2021/05/29 10:03:08;;;;;;;4.50;3.10;;;17.50;66.40;;;17.77;47.77;95392.09;5013653;28;20228;-83
2021/05/29 10:05:42;;;;;;;4.47;3.55;;;17.60;66.30;;;17.82;47.99;95383.47;4986471;28;20228;-82
2021/05/29 10:08:14;;;;;;;3.35;3.05;;;17.70;66.00;;;17.85;47.96;95385.66;4904347;28;22887;-83
2021/05/29 10:12:57;;;;;;;3.80;2.85;;;17.70;66.00;;;17.98;47.96;95376.72;5145951;27;20647;-83
2021/05/29 10:15:24;;;;;;;5.72;2.90;;;17.80;66.10;;;17.96;45.58;95376.16;5125717;28;20201;-83
2021/05/29 10:17:51;;;;;;;6.45;2.85;;;17.90;65.00;;;17.88;46.69;95379.09;5086816;28;20311;-82
2021/05/29 10:20:18;;;;;;;2.70;2.50;;;17.90;65.00;;;17.84;47.41;95383.22;5062822;28;20614;-83
2021/05/29 10:22:45;;;;;;;3.78;3.15;;;17.90;65.10;;;17.67;45.74;95383.06;4996938;28;20269;-82
2021/05/29 10:25:16;;;;;;;3.28;2.95;;;17.90;64.10;;;17.49;45.81;95370.63;4951628;28;20215;-83
2021/05/29 10:27:51;;;;;;;3.40;2.75;;;17.80;64.20;;;17.45;46.73;95372.91;4873688;29;20256;-84
2021/05/29 10:30:25;;;;;;;3.08;2.78;;;17.70;64.70;;;17.52;46.52;95365.69;4786988;29;20227;-83
2021/05/29 10:33:12;;;;;;;3.55;2.92;;;17.70;64.10;;;17.52;45.95;95357.72;5145979;27;20400;-82
2021/05/29 10:35:42;;;;;;;3.15;2.85;;;17.60;64.20;;;17.53;45.48;95356.72;5101971;28;20205;-83
2021/05/29 10:38:10;;;;;;;3.03;2.72;;;17.70;64.20;;;17.58;46.10;95353.38;5048185;28;20459;-82
2021/05/29 10:40:42;;;;;;;2.78;2.58;;;17.60;64.50;;;17.76;46.46;95360.50;4999013;28;20222;-83
2021/05/29 10:43:19;;;;;;;3.65;2.80;;;17.70;64.70;;;17.90;45.70;95348.63;5018604;28;20232;-82
2021/05/29 10:45:52;;;;;;;3.17;2.67;;;17.70;64.80;;;17.99;45.99;95358.94;4933282;28;20681;-82
2021/05/29 10:48:24;;;;;;;3.08;2.50;;;17.70;64.40;;;18.01;45.70;95357.69;4925744;29;20234;-82
2021/05/29 10:51:11;;;;;;;2.72;2.50;;;17.80;65.30;;;18.05;46.03;95353.56;5150621;27;20949;-83
2021/05/29 10:53:54;;;;;;;2.72;2.53;;;17.90;64.60;;;18.05;45.55;95350.91;5091491;27;20216;-82
2021/05/29 10:56:21;;;;;;;3.20;2.90;;;17.90;64.10;;;18.05;45.59;95358.88;5098906;28;20211;-83
2021/05/29 10:58:54;;;;;;;3.72;2.90;;;18.00;64.30;;;18.10;45.36;95358.16;5068085;28;20224;-82
2021/05/29 11:01:23;;;;;;;3.10;2.72;;;18.00;64.00;;;18.24;46.14;95345.50;5042168;28;20222;-84
2021/05/29 11:04:16;;;;;;;3.10;2.80;;;18.10;64.70;;;18.53;46.12;95350.94;4977416;28;20712;-83
2021/05/29 11:06:48;;;;;;;3.20;2.50;;;18.10;64.90;;;18.76;45.90;95339.50;4886952;29;20213;-83
2021/05/29 11:10:07;;;;;;;2.88;2.65;;;18.40;64.70;;;19.00;45.24;95339.50;5150372;27;20629;-83
2021/05/29 11:12:52;;;;;;;3.05;2.80;;;18.50;64.50;;;19.23;44.05;95335.16;5093936;27;20208;-83
2021/05/29 11:15:21;;;;;;;2.80;2.53;;;18.70;63.90;;;19.45;44.07;95335.31;5051197;28;20261;-82
2021/05/29 11:18:09;;;;;;;2.63;2.33;;;18.90;63.90;;;19.59;43.78;95338.50;5003902;28;20754;-83
2021/05/29 11:21:10;;;;;;;2.75;2.42;;;19.00;63.10;;;19.65;43.12;95337.53;4973982;28;20214;-81